createdAt,value
2019-03-17T00:00:07.006Z,98885.63
2019-03-17T00:02:38.693Z,98879.95
2019-03-17T00:05:09.298Z,98881.72
2019-03-17T00:07:39.952Z,98879.55
2019-03-17T00:10:10.315Z,98870.06
2019-03-17T00:12:40.788Z,98869.41
2019-03-17T00:15:11.547Z,98850.43
2019-03-17T00:17:43.242Z,98855.11
2019-03-17T00:20:14.334Z,98851.51
2019-03-17T00:22:44.616Z,98828.50
2019-03-17T00:25:14.961Z,98837.00
2019-03-17T00:27:45.564Z,98834.51
2019-03-17T00:30:15.918Z,98841.86
2019-03-17T00:32:46.712Z,98829.17
2019-03-17T00:35:16.959Z,98830.53
2019-03-17T00:37:49.613Z,98821.07
2019-03-17T00:40:20.659Z,98825.25
2019-03-17T00:42:52.454Z,98814.27
2019-03-17T00:45:23.822Z,98801.95
2019-03-17T00:47:54.161Z,98815.44
2019-03-17T00:50:24.578Z,98792.98
2019-03-17T00:52:55.174Z,98804.83
2019-03-17T00:55:25.729Z,98789.34
2019-03-17T00:57:56.485Z,98807.67
2019-03-17T01:00:26.739Z,98795.01
2019-03-17T01:03:04.579Z,98789.67
2019-03-17T01:06:17.898Z,98804.03
2019-03-17T01:08:50.216Z,98788.02
2019-03-17T01:11:25.943Z,98790.34
2019-03-17T01:13:58.412Z,98792.73
2019-03-17T01:16:31.823Z,98768.38
2019-03-17T01:19:15.133Z,98771.67
2019-03-17T01:21:47.516Z,98761.00
2019-03-17T01:24:21.256Z,98762.33
2019-03-17T01:26:55.154Z,98767.72
2019-03-17T01:29:25.432Z,98743.31
2019-03-17T01:31:56.051Z,98743.81
2019-03-17T01:34:26.294Z,98752.31
2019-03-17T01:36:56.948Z,98743.81
2019-03-17T01:39:28.798Z,98737.63
2019-03-17T01:41:59.270Z,98746.98
2019-03-17T01:44:29.618Z,98735.97
2019-03-17T01:47:01.214Z,98740.30
2019-03-17T01:49:36.210Z,98741.30
2019-03-17T01:52:06.497Z,98737.81
2019-03-17T01:54:37.419Z,98724.47
2019-03-17T01:57:07.850Z,98734.62
2019-03-17T01:59:38.452Z,98720.87
2019-03-17T02:02:09.522Z,98720.20
2019-03-17T02:04:42.402Z,98713.80
2019-03-17T02:07:12.976Z,98739.46
2019-03-17T02:09:43.694Z,98719.74
2019-03-17T02:12:14.500Z,98713.37
2019-03-17T02:14:45.488Z,98707.20
2019-03-17T02:17:16.860Z,98675.64
2019-03-17T02:19:47.155Z,98697.72
2019-03-17T02:22:17.388Z,98706.94
2019-03-17T02:24:47.994Z,98697.72
2019-03-17T02:27:18.567Z,98691.60
2019-03-17T02:29:49.128Z,98694.92
2019-03-17T02:32:19.720Z,98685.53
2019-03-17T02:34:50.643Z,98682.87
2019-03-17T02:37:20.893Z,98684.54
2019-03-17T02:39:52.310Z,98686.02
2019-03-17T02:42:22.762Z,98675.02
2019-03-17T02:44:53.089Z,98674.46
2019-03-17T02:47:23.689Z,98660.80
2019-03-17T02:49:54.196Z,98664.45
2019-03-17T02:52:24.470Z,98655.47
2019-03-17T02:54:56.512Z,98661.79
2019-03-17T02:57:27.017Z,98657.80
2019-03-17T02:59:57.287Z,98654.79
2019-03-17T03:02:27.971Z,98656.62
2019-03-17T03:04:59.117Z,98656.64
2019-03-17T03:07:29.287Z,98647.47
2019-03-17T03:09:59.568Z,98655.55
2019-03-17T03:12:30.271Z,98644.46
2019-03-17T03:15:00.821Z,98639.31
2019-03-17T03:17:31.321Z,98638.19
2019-03-17T03:20:01.928Z,98649.81
2019-03-17T03:22:32.350Z,98635.47
2019-03-17T03:25:02.994Z,98625.80
2019-03-17T03:27:33.542Z,98632.13
2019-03-17T03:30:03.824Z,98622.80
2019-03-17T03:32:36.459Z,98636.13
2019-03-17T03:35:07.030Z,98614.63
2019-03-17T03:37:37.242Z,98618.91
2019-03-17T03:40:08.239Z,98610.08
2019-03-17T03:42:38.813Z,98618.41
2019-03-17T03:45:09.239Z,98600.96
2019-03-17T03:47:39.462Z,98609.72
2019-03-17T03:50:10.100Z,98593.39
2019-03-17T03:52:40.974Z,98593.25
2019-03-17T03:55:11.491Z,98595.63
2019-03-17T03:57:41.722Z,98595.31
2019-03-17T04:00:12.013Z,98597.48
2019-03-17T04:02:42.525Z,98589.75
2019-03-17T04:05:13.087Z,98577.42
2019-03-17T04:07:43.494Z,98593.23
2019-03-17T04:10:13.902Z,98583.09
2019-03-17T04:12:44.125Z,98583.39
2019-03-17T04:15:14.381Z,98580.16
2019-03-17T04:17:44.997Z,98567.61
2019-03-17T04:20:15.400Z,98569.93
2019-03-17T04:22:46.734Z,98569.41
2019-03-17T04:25:18.320Z,98570.16
2019-03-17T04:27:48.462Z,98560.62
2019-03-17T04:30:18.646Z,98560.75
2019-03-17T04:32:49.498Z,98545.71
2019-03-17T04:35:20.014Z,98537.70
2019-03-17T04:37:50.209Z,98549.84
2019-03-17T04:40:20.459Z,98553.49
2019-03-17T04:42:50.990Z,98539.63
2019-03-17T04:45:21.206Z,98546.28
2019-03-17T04:47:52.457Z,98540.10
2019-03-17T04:50:22.754Z,98534.09
2019-03-17T04:52:53.035Z,98532.22
2019-03-17T04:55:23.557Z,98524.85
2019-03-17T04:57:53.745Z,98530.55
2019-03-17T05:00:23.989Z,98516.58
2019-03-17T05:02:54.880Z,98525.28
2019-03-17T05:05:25.173Z,98515.96
2019-03-17T05:07:56.193Z,98517.63
2019-03-17T05:10:26.752Z,98521.13
2019-03-17T05:13:00.144Z,98503.64
2019-03-17T05:15:30.339Z,98503.14
2019-03-17T05:18:01.363Z,98498.16
2019-03-17T05:20:31.650Z,98495.83
2019-03-17T05:23:01.855Z,98495.99
2019-03-17T05:25:32.215Z,98492.00
2019-03-17T05:28:02.743Z,98486.67
2019-03-17T05:30:34.003Z,98489.36
2019-03-17T05:33:04.262Z,98491.16
2019-03-17T05:35:34.518Z,98502.65
2019-03-17T05:38:04.691Z,98491.34
2019-03-17T05:40:35.069Z,98499.33
2019-03-17T05:43:05.293Z,98499.16
2019-03-17T05:45:35.582Z,98488.69
2019-03-17T05:48:06.922Z,98495.36
2019-03-17T05:50:37.460Z,98503.69
2019-03-17T05:53:07.907Z,98522.98
2019-03-17T05:55:38.502Z,98596.43
2019-03-17T05:58:08.758Z,98621.33
2019-03-17T06:00:38.975Z,98611.39
2019-03-17T06:03:09.282Z,98616.47
2019-03-17T06:05:39.931Z,98612.73
2019-03-17T06:08:10.285Z,98628.56
2019-03-17T06:10:40.678Z,98607.31
2019-03-17T06:13:10.860Z,98633.52
2019-03-17T06:15:41.087Z,98633.58
2019-03-17T06:18:12.646Z,98631.91
2019-03-17T06:20:44.114Z,98634.45
2019-03-17T06:23:14.364Z,98640.38
2019-03-17T06:25:45.449Z,98635.70
2019-03-17T06:28:15.642Z,98639.67
2019-03-17T06:30:46.233Z,98647.42
2019-03-17T06:33:18.720Z,98653.80
2019-03-17T06:35:48.907Z,98652.61
2019-03-17T06:38:19.385Z,98666.11
2019-03-17T06:40:49.673Z,98675.39
2019-03-17T06:43:19.896Z,98680.06
2019-03-17T06:45:50.455Z,98685.09
2019-03-17T06:48:21.654Z,98680.77
2019-03-17T06:50:53.194Z,98672.11
2019-03-17T06:53:23.352Z,98663.45
2019-03-17T06:55:53.861Z,98681.04
2019-03-17T06:58:24.375Z,98679.59
2019-03-17T07:00:55.635Z,98686.84
2019-03-17T07:03:25.915Z,98676.88
2019-03-17T07:05:56.223Z,98676.11
2019-03-17T07:08:27.493Z,98679.95
2019-03-17T07:10:57.855Z,98691.02
2019-03-17T07:13:30.020Z,98684.92
2019-03-17T07:16:02.008Z,98695.13
2019-03-17T07:18:32.631Z,98701.27
2019-03-17T07:21:02.892Z,98702.94
2019-03-17T07:23:34.321Z,98717.28
2019-03-17T07:26:05.673Z,98716.66
2019-03-17T07:28:36.118Z,98730.53
2019-03-17T07:31:06.930Z,98731.13
2019-03-17T07:33:37.325Z,98735.84
2019-03-17T07:36:07.522Z,98727.40
2019-03-17T07:38:37.989Z,98723.28
2019-03-17T07:41:10.783Z,98736.19
2019-03-17T07:43:41.021Z,98738.64
2019-03-17T07:46:11.520Z,98748.66
2019-03-17T07:48:42.424Z,98750.34
2019-03-17T07:51:15.973Z,98761.73
2019-03-17T07:53:47.517Z,98756.18
2019-03-17T07:56:18.029Z,98760.86
2019-03-17T07:58:48.534Z,98756.95
2019-03-17T08:01:19.085Z,98774.96
2019-03-17T08:03:49.667Z,98760.64
2019-03-17T08:06:20.065Z,98765.08
2019-03-17T08:08:50.485Z,98764.87
2019-03-17T08:11:21.821Z,98771.36
2019-03-17T08:13:52.542Z,98823.34
2019-03-17T08:16:23.293Z,98788.20
2019-03-17T08:18:54.262Z,98786.80
2019-03-17T08:21:24.453Z,98778.13
2019-03-17T08:23:54.972Z,98783.57
2019-03-17T08:26:25.148Z,98786.30
2019-03-17T08:28:55.347Z,98786.29
2019-03-17T08:31:26.494Z,98795.66
2019-03-17T08:33:56.811Z,98796.34
2019-03-17T08:36:27.983Z,98809.03
2019-03-17T08:38:58.281Z,98803.38
2019-03-17T08:41:28.744Z,98826.28
2019-03-17T08:43:59.455Z,98825.80
2019-03-17T08:46:30.842Z,98832.70
2019-03-17T08:49:01.735Z,98847.77
2019-03-17T08:51:32.466Z,98846.88
2019-03-17T08:54:02.750Z,98847.50
2019-03-17T08:56:32.998Z,98853.84
2019-03-17T08:59:03.420Z,98871.58
2019-03-17T09:01:34.365Z,98871.14
2019-03-17T09:04:05.072Z,98890.99
2019-03-17T09:06:35.431Z,98892.03
2019-03-17T09:09:08.549Z,98908.95
2019-03-17T09:11:39.635Z,98906.09
2019-03-17T09:14:10.705Z,98913.98
2019-03-17T09:16:41.259Z,98915.77
2019-03-17T09:19:11.716Z,98919.42
2019-03-17T09:21:42.268Z,98919.56
2019-03-17T09:24:17.413Z,98913.45
2019-03-17T09:26:45.220Z,98925.03
2019-03-17T09:29:16.183Z,98929.75
2019-03-17T09:31:46.362Z,98920.98
2019-03-17T09:34:17.204Z,98922.03
2019-03-17T09:36:48.421Z,98924.89
2019-03-17T09:39:19.032Z,98941.73
2019-03-17T09:41:49.177Z,98940.97
2019-03-17T09:44:19.396Z,98940.73
2019-03-17T09:46:49.588Z,98939.61
2019-03-17T09:49:20.822Z,98947.20
2019-03-17T09:51:51.340Z,98942.54
2019-03-17T09:54:21.498Z,98966.98
2019-03-17T09:56:51.799Z,98964.46
2019-03-17T09:59:22.843Z,98959.34
2019-03-17T10:01:53.417Z,98955.80
2019-03-17T10:04:23.846Z,98979.78
2019-03-17T10:06:55.613Z,98956.99
2019-03-17T10:09:26.512Z,98969.11
2019-03-17T10:11:57.201Z,98973.66
2019-03-17T10:14:28.675Z,98977.78
2019-03-17T10:16:58.830Z,98969.20
2019-03-17T10:19:30.078Z,98984.09
2019-03-17T10:22:00.380Z,98970.93
2019-03-17T10:24:30.810Z,98979.56
2019-03-17T10:27:01.299Z,98979.74
2019-03-17T10:29:31.750Z,98975.97
2019-03-17T10:32:02.096Z,98978.49
2019-03-17T10:34:35.998Z,98975.41
2019-03-17T10:37:06.708Z,98975.41
2019-03-17T10:39:37.568Z,98969.17
2019-03-17T10:42:08.702Z,98988.35
2019-03-17T10:44:39.868Z,98988.35
2019-03-17T10:47:10.582Z,98982.00
2019-03-17T10:49:41.536Z,98977.91
2019-03-17T10:52:11.679Z,98972.86
2019-03-17T10:54:41.877Z,98972.86
2019-03-17T10:57:12.142Z,98985.14
2019-03-17T10:59:43.377Z,98989.67
2019-03-17T11:02:13.566Z,98990.13
2019-03-17T11:04:43.835Z,98986.34
2019-03-17T11:07:14.339Z,99005.06
2019-03-17T11:09:44.585Z,99005.06
2019-03-17T11:12:14.892Z,99001.74
2019-03-17T11:14:45.603Z,99010.87
2019-03-17T11:17:16.143Z,99025.18
2019-03-17T11:19:46.397Z,99030.39
2019-03-17T11:22:18.377Z,99029.48
2019-03-17T11:24:49.154Z,99032.20
2019-03-17T11:27:19.421Z,99029.37
2019-03-17T11:29:49.860Z,99037.88
2019-03-17T11:32:20.320Z,99041.25
2019-03-17T11:34:51.353Z,99037.88
2019-03-17T11:37:23.616Z,99046.93
2019-03-17T11:39:54.292Z,99065.80
2019-03-17T11:42:24.793Z,99063.39
2019-03-17T11:44:55.444Z,99047.22
2019-03-17T11:47:25.639Z,99044.46
2019-03-17T11:49:55.909Z,99048.85
2019-03-17T11:52:26.444Z,99063.84
2019-03-17T11:54:56.859Z,99062.03
2019-03-17T11:57:27.000Z,99068.78
2019-03-17T11:59:57.564Z,99065.36
2019-03-17T12:02:30.069Z,99071.37
2019-03-17T12:05:00.382Z,99071.37
2019-03-17T12:07:31.344Z,99075.52
2019-03-17T12:10:01.805Z,99085.69
2019-03-17T12:12:32.326Z,99104.27
2019-03-17T12:15:02.568Z,99101.89
2019-03-17T12:17:35.936Z,99097.67
2019-03-17T12:20:07.529Z,99090.76
2019-03-17T12:22:37.716Z,99104.84
2019-03-17T12:25:11.563Z,99098.52
2019-03-17T12:27:42.202Z,99112.39
2019-03-17T12:30:21.506Z,99114.98
2019-03-17T12:32:51.846Z,99105.11
2019-03-17T12:35:22.429Z,99105.17
2019-03-17T12:37:53.227Z,99107.73
2019-03-17T12:40:23.376Z,99109.49
2019-03-17T12:42:53.552Z,99106.95
2019-03-17T12:45:24.769Z,99110.64
2019-03-17T12:47:56.690Z,99107.40
2019-03-17T12:50:28.176Z,99101.42
2019-03-17T12:52:59.558Z,99094.63
2019-03-17T12:55:30.217Z,99103.16
2019-03-17T12:58:02.225Z,99112.39
2019-03-17T13:00:32.447Z,99107.61
2019-03-17T13:03:02.680Z,99115.98
2019-03-17T13:05:33.610Z,99111.22
2019-03-17T13:08:03.821Z,99107.91
2019-03-17T13:10:34.259Z,99105.34
2019-03-17T13:13:04.530Z,99127.75
2019-03-17T13:15:35.416Z,99129.14
2019-03-17T13:18:06.637Z,99128.45
2019-03-17T13:20:37.402Z,99119.48
2019-03-17T13:23:07.580Z,99130.03
2019-03-17T13:25:38.419Z,99128.69
2019-03-17T13:28:08.864Z,99131.42
2019-03-17T13:30:39.821Z,99139.78
2019-03-17T13:33:10.349Z,99139.06
2019-03-17T13:35:41.438Z,99119.16
2019-03-17T13:38:12.101Z,99137.28
2019-03-17T13:40:42.638Z,99141.63
2019-03-17T13:43:13.354Z,99141.98
2019-03-17T13:45:44.149Z,99162.73
2019-03-17T13:48:14.684Z,99156.27
2019-03-17T13:50:44.934Z,99145.31
2019-03-17T13:53:15.529Z,99149.27
2019-03-17T13:55:46.095Z,99154.23
2019-03-17T13:58:16.852Z,99156.89
2019-03-17T14:00:50.682Z,99167.48
2019-03-17T14:03:21.313Z,99161.10
2019-03-17T14:05:51.959Z,99165.41
2019-03-17T14:08:23.359Z,99163.51
2019-03-17T14:10:53.847Z,99161.53
2019-03-17T14:13:24.326Z,99170.03
2019-03-17T14:15:56.212Z,99169.11
2019-03-17T14:18:27.447Z,99172.50
2019-03-17T14:20:57.667Z,99169.70
2019-03-17T14:23:29.540Z,99182.38
2019-03-17T14:26:00.161Z,99188.35
2019-03-17T14:28:30.456Z,99183.71
2019-03-17T14:31:01.477Z,99203.75
2019-03-17T14:33:33.248Z,99195.05
2019-03-17T14:36:03.456Z,99197.91
2019-03-17T14:38:34.097Z,99198.71
2019-03-17T14:41:04.387Z,99219.72
2019-03-17T14:43:34.649Z,99212.77
2019-03-17T14:46:05.992Z,99220.12
2019-03-17T14:48:36.427Z,99216.97
2019-03-17T14:51:06.964Z,99221.44
2019-03-17T14:53:37.484Z,99227.05
2019-03-17T14:56:08.781Z,99205.02
2019-03-17T14:58:39.224Z,99244.69
2019-03-17T15:01:09.820Z,99252.89
2019-03-17T15:03:40.096Z,99261.33
2019-03-17T15:06:11.707Z,99256.44
2019-03-17T15:08:42.271Z,99240.11
2019-03-17T15:11:13.081Z,99253.95
2019-03-17T15:13:44.363Z,99266.47
2019-03-17T15:16:14.962Z,99255.09
2019-03-17T15:18:45.236Z,99261.58
2019-03-17T15:21:15.476Z,99273.70
2019-03-17T15:23:46.413Z,99265.46
2019-03-17T15:26:17.929Z,99276.56
2019-03-17T15:28:48.565Z,99279.66
2019-03-17T15:31:18.743Z,99296.12
2019-03-17T15:33:49.916Z,99293.81
2019-03-17T15:36:20.474Z,99284.15
2019-03-17T15:38:51.273Z,99298.84
2019-03-17T15:41:22.263Z,99293.28
2019-03-17T15:43:52.966Z,99300.67
2019-03-17T15:46:23.653Z,99304.44
2019-03-17T15:48:54.742Z,99300.19
2019-03-17T15:51:28.651Z,99302.23
2019-03-17T15:53:59.547Z,99305.75
2019-03-17T15:56:30.635Z,99309.83
2019-03-17T15:59:01.712Z,99308.98
2019-03-17T16:01:32.711Z,99321.59
2019-03-17T16:04:04.833Z,99323.75
2019-03-17T16:06:35.387Z,99325.25
2019-03-17T16:09:08.919Z,99345.19
2019-03-17T16:11:39.313Z,99344.11
2019-03-17T16:14:09.895Z,99346.27
2019-03-17T16:16:40.773Z,99342.17
2019-03-17T16:19:11.675Z,99336.51
2019-03-17T16:21:43.321Z,99335.77
2019-03-17T16:24:15.625Z,99352.69
2019-03-17T16:26:46.543Z,99351.70
2019-03-17T16:29:17.109Z,99346.77
2019-03-17T16:31:49.025Z,99362.93
2019-03-17T16:34:19.532Z,99354.86
2019-03-17T16:36:50.166Z,99359.79
2019-03-17T16:39:20.434Z,99375.50
2019-03-17T16:41:51.124Z,99359.58
2019-03-17T16:44:21.743Z,99368.87
2019-03-17T16:46:53.697Z,99369.56
2019-03-17T16:49:25.605Z,99357.73
2019-03-17T16:51:58.083Z,99379.81
2019-03-17T16:54:29.032Z,99363.52
2019-03-17T16:56:59.488Z,99371.62
2019-03-17T16:59:32.182Z,99374.75
2019-03-17T17:02:03.329Z,99375.02
2019-03-17T17:04:33.840Z,99370.55
2019-03-17T17:07:04.461Z,99384.19
2019-03-17T17:09:36.547Z,99377.91
2019-03-17T17:12:07.287Z,99389.73
2019-03-17T17:14:37.936Z,99389.61
2019-03-17T17:17:09.041Z,99386.09
2019-03-17T17:19:39.716Z,99403.95
2019-03-17T17:22:10.773Z,99385.86
2019-03-17T17:24:42.365Z,99395.37
2019-03-17T17:27:13.392Z,99393.56
2019-03-17T17:29:44.189Z,99392.48
2019-03-17T17:32:15.009Z,99401.50
2019-03-17T17:34:45.368Z,99405.58
2019-03-17T17:37:16.320Z,99404.34
2019-03-17T17:39:48.894Z,99398.20
2019-03-17T17:42:19.588Z,99404.22
2019-03-17T17:44:56.500Z,99414.08
2019-03-17T17:47:27.217Z,99410.70
2019-03-17T17:49:57.842Z,99419.50
2019-03-17T17:52:28.551Z,99402.74
2019-03-17T17:54:59.054Z,99429.03
2019-03-17T17:57:30.200Z,99424.72
2019-03-17T18:00:07.054Z,99425.08
2019-03-17T18:02:38.316Z,99406.00
2019-03-17T18:05:09.325Z,99422.27
2019-03-17T18:07:44.335Z,99419.98
2019-03-17T18:10:17.062Z,99424.28
2019-03-17T18:12:48.234Z,99416.56
2019-03-17T18:15:21.946Z,99421.39
2019-03-17T18:17:52.670Z,99422.95
2019-03-17T18:20:23.399Z,99417.00
2019-03-17T18:22:54.014Z,99420.45
2019-03-17T18:25:24.743Z,99414.06
2019-03-17T18:27:55.307Z,99422.02
2019-03-17T18:30:28.381Z,99429.72
2019-03-17T18:32:59.226Z,99429.84
2019-03-17T18:35:31.284Z,99434.75
2019-03-17T18:38:02.127Z,99440.05
2019-03-17T18:40:32.740Z,99427.98
2019-03-17T18:43:03.378Z,99432.81
2019-03-17T18:45:34.177Z,99435.22
2019-03-17T18:48:05.795Z,99443.77
2019-03-17T18:50:36.209Z,99428.82
2019-03-17T18:53:11.279Z,99450.81
2019-03-17T18:55:42.768Z,99441.55
2019-03-17T18:58:13.798Z,99446.70
2019-03-17T19:00:44.688Z,99449.42
2019-03-17T19:03:15.731Z,99455.55
2019-03-17T19:05:46.436Z,99452.50
2019-03-17T19:08:17.501Z,99462.34
2019-03-17T19:10:48.027Z,99446.16
2019-03-17T19:13:19.799Z,99464.94
2019-03-17T19:15:51.097Z,99466.26
2019-03-17T19:18:21.974Z,99463.21
2019-03-17T19:20:56.291Z,99470.41
2019-03-17T19:23:30.811Z,99467.64
2019-03-17T19:26:04.358Z,99460.31
2019-03-17T19:28:34.923Z,99449.12
2019-03-17T19:31:08.757Z,99463.58
2019-03-17T19:33:39.908Z,99462.42
2019-03-17T19:36:12.778Z,99461.23
2019-03-17T19:38:45.341Z,99467.91
2019-03-17T19:41:16.876Z,99463.94
2019-03-17T19:43:48.552Z,99444.42
2019-03-17T19:46:22.216Z,99463.03
2019-03-17T19:48:55.246Z,99449.17
2019-03-17T19:51:26.636Z,99444.10
2019-03-17T19:53:58.534Z,99450.25
2019-03-17T19:56:30.850Z,99450.25
2019-03-17T19:59:03.927Z,99448.92
2019-03-17T20:01:42.063Z,99447.43
2019-03-17T20:04:15.600Z,99444.64
2019-03-17T20:06:49.940Z,99443.16
2019-03-17T20:09:32.559Z,99450.36
2019-03-17T20:12:11.305Z,99451.02
2019-03-17T20:14:45.444Z,99458.84
2019-03-17T20:17:18.662Z,99452.36
2019-03-17T20:19:49.883Z,99454.59
2019-03-17T20:22:26.859Z,99450.13
2019-03-17T20:25:03.519Z,99457.60
2019-03-17T20:27:37.345Z,99459.29
2019-03-17T20:30:09.078Z,99438.21
2019-03-17T20:32:45.957Z,99459.29
2019-03-17T20:35:18.430Z,99449.06
2019-03-17T20:37:52.044Z,99453.64
2019-03-17T20:40:23.196Z,99445.22
2019-03-17T20:42:53.631Z,99437.44
2019-03-17T20:45:25.537Z,99440.81
2019-03-17T20:48:06.862Z,99434.42
2019-03-17T20:50:37.679Z,99435.38
2019-03-17T20:53:08.815Z,99442.38
2019-03-17T20:55:42.411Z,99442.14
2019-03-17T20:58:13.634Z,99431.91
2019-03-17T21:00:47.087Z,99431.67
2019-03-17T21:03:18.714Z,99447.73
2019-03-17T21:05:49.864Z,99434.48
2019-03-17T21:08:23.081Z,99441.23
2019-03-17T21:10:56.354Z,99438.83
2019-03-17T21:13:32.925Z,99436.67
2019-03-17T21:16:04.756Z,99442.50
2019-03-17T21:18:38.792Z,99437.69
2019-03-17T21:21:09.466Z,99446.00
2019-03-17T21:23:43.197Z,99439.02
2019-03-17T21:26:22.152Z,99443.35
2019-03-17T21:28:58.096Z,99433.47
2019-03-17T21:31:45.144Z,99440.44
2019-03-17T21:34:20.440Z,99432.45
2019-03-17T21:37:00.505Z,99422.09
2019-03-17T21:42:14.150Z,99424.00
2019-03-17T21:44:48.740Z,99435.75
2019-03-17T21:47:19.107Z,99437.62
2019-03-17T21:49:50.649Z,99437.42
2019-03-17T21:52:20.965Z,99442.78
2019-03-17T21:54:56.139Z,99434.67
2019-03-17T22:04:01.199Z,99445.80
2019-03-17T22:09:41.125Z,99459.72
2019-03-17T22:12:11.478Z,99494.67
2019-03-17T22:17:23.615Z,99519.64
2019-03-17T22:19:57.899Z,99504.06
2019-03-17T22:22:49.743Z,99500.75
2019-03-17T22:25:20.023Z,99492.91
2019-03-17T22:28:08.205Z,99484.54
2019-03-17T22:30:40.632Z,99500.08
2019-03-17T22:33:22.199Z,99495.86
2019-03-17T22:35:53.970Z,99497.94
2019-03-17T22:38:26.095Z,99493.70
2019-03-17T22:44:03.174Z,99486.12
2019-03-17T22:46:33.671Z,99481.87
2019-03-17T22:49:16.539Z,99485.05
2019-03-17T22:52:26.987Z,99476.27
2019-03-17T22:57:39.620Z,99481.13
2019-03-17T23:00:13.340Z,99481.70
2019-03-17T23:02:43.622Z,99483.45
2019-03-17T23:05:13.903Z,99473.92
2019-03-17T23:10:38.720Z,99480.57
2019-03-17T23:13:09.101Z,99473.86
2019-03-17T23:18:48.010Z,99467.07
2019-03-17T23:21:22.241Z,99462.78
2019-03-17T23:23:53.266Z,99470.03
2019-03-17T23:26:25.558Z,99458.91
2019-03-17T23:28:56.208Z,99459.34
2019-03-17T23:31:26.596Z,99450.20
2019-03-17T23:33:56.908Z,99467.75
2019-03-17T23:36:28.036Z,99457.17
2019-03-17T23:38:58.423Z,99465.52
2019-03-17T23:41:35.694Z,99459.06
2019-03-17T23:44:05.958Z,99469.42
2019-03-17T23:46:36.524Z,99472.33
2019-03-17T23:49:07.064Z,99468.81
2019-03-17T23:51:38.008Z,99476.90
2019-03-17T23:54:09.045Z,99484.06
2019-03-17T23:59:43.453Z,99481.95
